createdAt,value
2023-05-18T00:00:26.016Z,40.22
2023-05-18T00:01:25.870Z,40.22
2023-05-18T00:02:25.831Z,40.20
2023-05-18T00:03:25.703Z,40.22
2023-05-18T00:04:25.517Z,40.22
2023-05-18T00:05:25.323Z,40.24
2023-05-18T00:06:25.192Z,40.22
2023-05-18T00:07:25.068Z,40.21
2023-05-18T00:08:24.922Z,40.23
2023-05-18T00:09:24.793Z,40.24
2023-05-18T00:10:24.685Z,40.23
2023-05-18T00:11:24.499Z,40.22
2023-05-18T00:12:24.369Z,40.22
2023-05-18T00:13:24.221Z,40.22
2023-05-18T00:14:24.084Z,40.20
2023-05-18T00:15:23.958Z,40.23
2023-05-18T00:16:23.821Z,40.23
2023-05-18T00:17:23.755Z,40.25
2023-05-18T00:18:23.528Z,40.26
2023-05-18T00:19:23.460Z,40.26
2023-05-18T00:20:23.248Z,40.25
2023-05-18T00:21:23.122Z,40.25
2023-05-18T00:22:22.987Z,40.25
2023-05-18T00:23:22.840Z,40.23
2023-05-18T00:24:22.684Z,40.23
2023-05-18T00:25:22.570Z,40.25
2023-05-18T00:26:22.451Z,40.27
2023-05-18T00:27:22.282Z,40.24
2023-05-18T00:28:22.120Z,40.24
2023-05-18T00:29:21.986Z,40.28
2023-05-18T00:30:21.852Z,40.25
2023-05-18T00:31:21.727Z,40.25
2023-05-18T00:32:21.560Z,40.25
2023-05-18T00:33:21.423Z,40.27
2023-05-18T00:34:21.283Z,40.25
2023-05-18T00:35:21.145Z,40.26
2023-05-18T00:36:21.010Z,40.26
2023-05-18T00:37:20.876Z,40.27
2023-05-18T00:38:20.727Z,40.25
2023-05-18T00:39:20.589Z,40.27
2023-05-18T00:40:20.451Z,40.28
2023-05-18T00:41:20.303Z,40.28
2023-05-18T00:42:20.175Z,40.28
2023-05-18T00:43:20.045Z,40.27
2023-05-18T00:44:20.012Z,40.27
2023-05-18T00:45:19.768Z,40.26
2023-05-18T00:46:19.668Z,40.27
2023-05-18T00:47:19.499Z,40.29
2023-05-18T00:48:19.436Z,40.30
2023-05-18T00:49:19.232Z,40.30
2023-05-18T00:50:19.089Z,40.30
2023-05-18T00:51:18.955Z,40.29
2023-05-18T00:52:18.845Z,40.25
2023-05-18T00:53:18.705Z,40.28
2023-05-18T00:54:18.572Z,40.27
2023-05-18T00:55:18.457Z,40.28
2023-05-18T00:56:18.310Z,40.28
2023-05-18T00:57:18.166Z,40.27
2023-05-18T00:58:18.043Z,40.31
2023-05-18T00:59:17.899Z,40.28
2023-05-18T01:00:17.764Z,40.30
2023-05-18T01:01:17.697Z,40.31
2023-05-18T01:02:17.560Z,40.30
2023-05-18T01:03:17.384Z,40.31
2023-05-18T01:04:17.214Z,40.31
2023-05-18T01:05:17.080Z,40.26
2023-05-18T01:06:16.949Z,40.31
2023-05-18T01:07:16.806Z,40.28
2023-05-18T01:08:16.702Z,40.29
2023-05-18T01:09:16.555Z,40.30
2023-05-18T01:10:16.405Z,40.32
2023-05-18T01:11:16.341Z,40.27
2023-05-18T01:12:16.140Z,40.32
2023-05-18T01:13:16.022Z,40.32
2023-05-18T01:14:15.864Z,40.32
2023-05-18T01:15:15.725Z,40.33
2023-05-18T01:16:15.579Z,40.31
2023-05-18T01:17:15.526Z,40.33
2023-05-18T01:18:15.370Z,40.32
2023-05-18T01:19:15.246Z,40.32
2023-05-18T01:20:15.049Z,40.31
2023-05-18T01:21:14.913Z,40.32
2023-05-18T01:22:14.754Z,40.32
2023-05-18T01:23:14.627Z,40.35
2023-05-18T01:24:14.495Z,40.32
2023-05-18T01:25:14.389Z,40.32
2023-05-18T01:26:14.260Z,40.34
2023-05-18T01:27:14.123Z,40.32
2023-05-18T01:28:13.990Z,40.33
2023-05-18T01:29:13.869Z,40.33
2023-05-18T01:30:13.726Z,40.32
2023-05-18T01:31:13.647Z,40.33
2023-05-18T01:32:13.472Z,40.30
2023-05-18T01:33:13.409Z,40.30
2023-05-18T01:34:13.214Z,40.33
2023-05-18T01:35:13.155Z,40.32
2023-05-18T01:36:12.954Z,40.31
2023-05-18T01:37:12.833Z,40.34
2023-05-18T01:38:12.700Z,40.33
2023-05-18T01:39:12.567Z,40.33
2023-05-18T01:40:12.443Z,40.33
2023-05-18T01:41:12.299Z,40.34
2023-05-18T01:42:12.169Z,40.30
2023-05-18T01:43:12.041Z,40.34
2023-05-18T01:44:11.912Z,40.32
2023-05-18T01:45:11.785Z,40.33
2023-05-18T01:46:11.679Z,40.33
2023-05-18T01:47:11.526Z,40.34
2023-05-18T01:48:11.505Z,40.34
2023-05-18T01:49:11.275Z,40.34
2023-05-18T01:50:11.151Z,40.35
2023-05-18T01:51:11.005Z,40.34
2023-05-18T01:52:10.881Z,40.36
2023-05-18T01:53:10.745Z,40.36
2023-05-18T01:54:10.634Z,40.35
2023-05-18T01:55:10.497Z,40.34
2023-05-18T01:56:10.365Z,40.35
2023-05-18T01:57:10.245Z,40.37
2023-05-18T01:58:10.108Z,40.36
2023-05-18T01:59:09.974Z,40.34
2023-05-18T02:00:09.850Z,40.38
2023-05-18T02:01:09.732Z,40.35
2023-05-18T02:02:09.632Z,40.35
2023-05-18T02:03:09.544Z,40.35
2023-05-18T02:04:09.620Z,40.37
2023-05-18T02:05:09.204Z,40.37
2023-05-18T02:06:09.070Z,40.35
2023-05-18T02:07:08.949Z,40.36
2023-05-18T02:08:08.815Z,40.34
2023-05-18T02:09:08.680Z,40.34
2023-05-18T02:10:08.603Z,40.37
2023-05-18T02:11:08.421Z,40.33
2023-05-18T02:12:08.301Z,40.35
2023-05-18T02:13:08.165Z,40.34
2023-05-18T02:14:08.040Z,40.34
2023-05-18T02:15:07.921Z,40.36
2023-05-18T02:16:07.843Z,40.35
2023-05-18T02:17:07.670Z,40.35
2023-05-18T02:18:07.530Z,40.36
2023-05-18T02:19:07.499Z,40.35
2023-05-18T02:20:07.281Z,40.34
2023-05-18T02:21:07.126Z,40.36
2023-05-18T02:22:07.042Z,40.35
2023-05-18T02:23:06.866Z,40.35
2023-05-18T02:24:06.735Z,40.37
2023-05-18T02:25:06.603Z,40.35
2023-05-18T02:26:06.480Z,40.33
2023-05-18T02:27:06.347Z,40.35
2023-05-18T02:28:06.230Z,40.33
2023-05-18T02:29:06.085Z,40.35
2023-05-18T02:30:05.971Z,40.35
2023-05-18T02:31:05.830Z,40.34
2023-05-18T02:32:05.710Z,40.34
2023-05-18T02:33:05.645Z,40.34
2023-05-18T02:34:05.460Z,40.33
2023-05-18T02:35:05.351Z,40.33
2023-05-18T02:36:05.202Z,40.34
2023-05-18T02:37:05.119Z,40.35
2023-05-18T02:38:04.946Z,40.33
2023-05-18T02:39:04.861Z,40.34
2023-05-18T02:40:04.694Z,40.35
2023-05-18T02:41:04.564Z,40.35
2023-05-18T02:42:04.442Z,40.31
2023-05-18T02:43:04.324Z,40.33
2023-05-18T02:44:04.201Z,40.31
2023-05-18T02:45:04.065Z,40.33
2023-05-18T02:46:03.994Z,40.32
2023-05-18T02:47:03.806Z,40.32
2023-05-18T02:48:03.714Z,40.33
2023-05-18T02:49:03.547Z,40.31
2023-05-18T02:50:03.410Z,40.34
2023-05-18T02:51:03.283Z,40.31
2023-05-18T02:52:03.149Z,40.32
2023-05-18T02:53:03.026Z,40.32
2023-05-18T02:54:02.887Z,40.29
2023-05-18T02:55:02.771Z,40.34
2023-05-18T02:56:02.625Z,40.33
2023-05-18T02:57:02.485Z,40.30
2023-05-18T02:58:02.381Z,40.32
2023-05-18T02:59:02.231Z,40.30
2023-05-18T03:00:02.100Z,40.34
2023-05-18T03:01:01.996Z,40.32
2023-05-18T03:02:01.869Z,40.31
2023-05-18T03:03:01.820Z,40.31
2023-05-18T03:04:01.573Z,40.28
2023-05-18T03:05:01.456Z,40.28
2023-05-18T03:06:01.315Z,40.31
2023-05-18T03:07:01.197Z,40.30
2023-05-18T03:08:01.071Z,40.30
2023-05-18T03:09:00.953Z,40.29
2023-05-18T03:10:00.833Z,40.28
2023-05-18T03:11:00.687Z,40.26
2023-05-18T03:12:00.557Z,40.30
2023-05-18T03:13:00.436Z,40.27
2023-05-18T03:14:00.312Z,40.31
2023-05-18T03:15:00.201Z,40.28
2023-05-18T03:16:00.038Z,40.28
2023-05-18T03:16:59.945Z,40.30
2023-05-18T03:17:59.833Z,40.29
2023-05-18T03:18:59.660Z,40.28
2023-05-18T03:19:59.527Z,40.27
2023-05-18T03:20:59.413Z,40.29
2023-05-18T03:21:59.289Z,40.28
2023-05-18T03:22:59.162Z,40.28
2023-05-18T03:23:59.042Z,40.27
2023-05-18T03:24:58.957Z,40.27
2023-05-18T03:25:58.810Z,40.26
2023-05-18T03:26:58.662Z,40.25
2023-05-18T03:27:58.535Z,40.26
2023-05-18T03:28:58.404Z,40.25
2023-05-18T03:29:58.274Z,40.26
2023-05-18T03:30:58.178Z,40.26
2023-05-18T03:31:58.126Z,40.26
2023-05-18T03:32:57.971Z,40.27
2023-05-18T03:33:57.781Z,40.25
2023-05-18T03:34:57.649Z,40.25
2023-05-18T03:35:57.502Z,40.25
2023-05-18T03:36:57.392Z,40.26
2023-05-18T03:37:57.268Z,40.23
2023-05-18T03:38:57.130Z,40.24
2023-05-18T03:39:57.007Z,40.26
2023-05-18T03:40:56.890Z,40.25
2023-05-18T03:41:56.763Z,40.27
2023-05-18T03:42:56.622Z,40.22
2023-05-18T03:43:56.502Z,40.23
2023-05-18T03:44:56.378Z,40.22
2023-05-18T03:45:56.283Z,40.22
2023-05-18T03:46:56.124Z,40.23
2023-05-18T03:47:56.016Z,40.24
2023-05-18T03:48:55.856Z,40.23
2023-05-18T03:49:55.780Z,40.23
2023-05-18T03:50:55.599Z,40.22
2023-05-18T03:51:55.498Z,40.19
2023-05-18T03:52:55.350Z,40.19
2023-05-18T03:53:55.222Z,40.22
2023-05-18T03:54:55.103Z,40.23
2023-05-18T03:55:54.958Z,40.22
2023-05-18T03:56:54.833Z,40.20
2023-05-18T03:57:54.703Z,40.21
2023-05-18T03:58:54.584Z,40.21
2023-05-18T03:59:54.448Z,40.21
2023-05-18T04:00:54.358Z,40.20
2023-05-18T04:01:54.348Z,40.22
2023-05-18T04:02:54.119Z,40.19
2023-05-18T04:03:54.003Z,40.18
2023-05-18T04:04:53.837Z,40.19
2023-05-18T04:05:53.704Z,40.18
2023-05-18T04:06:53.582Z,40.20
2023-05-18T04:07:53.450Z,40.16
2023-05-18T04:08:53.327Z,40.17
2023-05-18T04:09:53.195Z,40.21
2023-05-18T04:10:53.084Z,40.19
2023-05-18T04:11:52.965Z,40.16
2023-05-18T04:12:52.840Z,40.19
2023-05-18T04:13:52.715Z,40.18
2023-05-18T04:14:52.592Z,40.17
2023-05-18T04:15:52.766Z,40.16
2023-05-18T04:16:52.413Z,40.16
2023-05-18T04:17:52.244Z,40.15
2023-05-18T04:18:52.131Z,40.16
2023-05-18T04:19:51.967Z,40.15
2023-05-18T04:20:51.831Z,40.16
2023-05-18T04:21:51.723Z,40.17
2023-05-18T04:22:51.598Z,40.17
2023-05-18T04:23:51.466Z,40.14
2023-05-18T04:24:51.347Z,40.15
2023-05-18T04:25:51.224Z,40.15
2023-05-18T04:26:51.082Z,40.12
2023-05-18T04:27:51.617Z,40.14
2023-05-18T04:28:50.825Z,40.14
2023-05-18T04:29:50.710Z,40.15
2023-05-18T04:30:50.582Z,40.14
2023-05-18T04:31:50.479Z,40.14
2023-05-18T04:32:50.382Z,40.14
2023-05-18T04:33:50.194Z,40.17
2023-05-18T04:34:50.076Z,40.13
2023-05-18T04:35:49.951Z,40.14
2023-05-18T04:36:49.823Z,40.11
2023-05-18T04:37:49.721Z,40.13
2023-05-18T04:38:49.579Z,40.14
2023-05-18T04:39:49.448Z,40.13
2023-05-18T04:40:49.311Z,40.11
2023-05-18T04:41:49.191Z,40.11
2023-05-18T04:42:49.115Z,40.10
2023-05-18T04:43:48.935Z,40.12
2023-05-18T04:44:48.811Z,40.10
2023-05-18T04:45:48.712Z,40.11
2023-05-18T04:46:48.562Z,40.12
2023-05-18T04:47:48.524Z,40.09
2023-05-18T04:48:48.368Z,40.09
2023-05-18T04:49:48.183Z,40.11
2023-05-18T04:50:48.058Z,40.12
2023-05-18T04:51:47.942Z,40.08
2023-05-18T04:52:47.815Z,40.10
2023-05-18T04:53:47.696Z,40.09
2023-05-18T04:54:47.573Z,40.11
2023-05-18T04:55:47.434Z,40.10
2023-05-18T04:56:47.304Z,40.11
2023-05-18T04:57:47.178Z,40.10
2023-05-18T04:58:47.055Z,40.10
2023-05-18T04:59:46.931Z,40.08
2023-05-18T05:00:46.789Z,40.09
2023-05-18T05:01:46.804Z,40.09
2023-05-18T05:02:46.693Z,40.07
2023-05-18T05:03:46.537Z,40.08
2023-05-18T05:04:46.273Z,40.10
2023-05-18T05:05:46.135Z,40.09
2023-05-18T05:06:46.004Z,40.10
2023-05-18T05:07:45.877Z,40.10
2023-05-18T05:08:45.754Z,40.11
2023-05-18T05:09:45.639Z,40.07
2023-05-18T05:10:45.504Z,40.06
2023-05-18T05:11:45.401Z,40.05
2023-05-18T05:12:46.826Z,40.05
2023-05-18T05:13:45.081Z,40.04
2023-05-18T05:14:44.937Z,40.06
2023-05-18T05:15:44.801Z,40.04
2023-05-18T05:16:44.602Z,40.05
2023-05-18T05:17:44.509Z,40.05
2023-05-18T05:18:46.594Z,40.03
2023-05-18T05:19:44.153Z,40.05
2023-05-18T05:20:43.968Z,40.04
2023-05-18T05:21:43.839Z,40.06
2023-05-18T05:22:43.717Z,40.04
2023-05-18T05:23:43.505Z,40.05
2023-05-18T05:24:43.352Z,40.02
2023-05-18T05:25:43.182Z,40.02
2023-05-18T05:26:43.029Z,40.03
2023-05-18T05:27:42.868Z,40.02
2023-05-18T05:28:42.713Z,40.02
2023-05-18T05:29:42.569Z,39.99
2023-05-18T05:30:42.419Z,40.01
2023-05-18T05:31:42.318Z,39.98
2023-05-18T05:32:42.137Z,39.99
2023-05-18T05:33:41.956Z,39.98
2023-05-18T05:34:41.826Z,39.95
2023-05-18T05:35:41.660Z,39.98
2023-05-18T05:36:41.508Z,39.97
2023-05-18T05:37:41.345Z,39.96
2023-05-18T05:38:41.195Z,39.92
2023-05-18T05:39:41.056Z,39.94
2023-05-18T05:40:40.888Z,39.97
2023-05-18T05:41:40.728Z,39.95
2023-05-18T05:42:40.559Z,39.95
2023-05-18T05:43:40.403Z,39.95
2023-05-18T05:44:40.260Z,39.97
2023-05-18T05:45:40.094Z,40.00
2023-05-18T05:46:39.971Z,39.96
2023-05-18T05:47:39.821Z,39.96
2023-05-18T05:48:39.656Z,39.94
2023-05-18T05:49:39.503Z,39.95
2023-05-18T05:50:39.359Z,39.94
2023-05-18T05:51:39.208Z,39.96
2023-05-18T05:52:39.058Z,39.95
2023-05-18T05:53:38.902Z,39.95
2023-05-18T05:54:38.757Z,39.94
2023-05-18T05:55:38.610Z,39.93
2023-05-18T05:56:38.459Z,39.92
2023-05-18T05:57:38.307Z,39.93
2023-05-18T05:58:38.263Z,39.93
2023-05-18T05:59:37.993Z,39.92
2023-05-18T06:00:37.826Z,39.92
2023-05-18T06:01:37.738Z,39.93
2023-05-18T06:02:37.740Z,39.93
2023-05-18T06:03:37.420Z,39.92
2023-05-18T06:04:37.212Z,39.92
2023-05-18T06:05:37.040Z,39.93
2023-05-18T06:06:36.896Z,39.91
2023-05-18T06:07:36.730Z,39.88
2023-05-18T06:08:36.574Z,39.91
2023-05-18T06:09:36.419Z,39.92
2023-05-18T06:10:36.283Z,39.93
2023-05-18T06:11:36.121Z,39.91
2023-05-18T06:12:35.969Z,39.94
2023-05-18T06:13:35.814Z,39.92
2023-05-18T06:14:35.668Z,39.92
2023-05-18T06:15:35.510Z,39.93
2023-05-18T06:16:35.396Z,39.92
2023-05-18T06:17:35.246Z,39.91
2023-05-18T06:18:35.064Z,39.89
2023-05-18T06:19:34.889Z,39.91
2023-05-18T06:20:34.723Z,39.91
2023-05-18T06:21:34.581Z,39.90
2023-05-18T06:22:34.413Z,39.90
2023-05-18T06:23:34.270Z,39.93
2023-05-18T06:24:34.100Z,39.91
2023-05-18T06:25:33.958Z,39.89
2023-05-18T06:26:33.802Z,39.89
2023-05-18T06:27:33.649Z,39.90
2023-05-18T06:28:33.494Z,39.88
2023-05-18T06:29:33.330Z,39.91
2023-05-18T06:30:33.180Z,39.89
2023-05-18T06:31:33.042Z,39.88
2023-05-18T06:32:32.901Z,39.89
2023-05-18T06:33:32.730Z,39.88
2023-05-18T06:34:32.569Z,39.90
2023-05-18T06:35:32.503Z,39.86
2023-05-18T06:36:32.270Z,39.87
2023-05-18T06:37:32.129Z,39.89
2023-05-18T06:38:31.990Z,39.88
2023-05-18T06:39:31.815Z,39.89
2023-05-18T06:40:31.655Z,39.87
2023-05-18T06:41:31.496Z,39.87
2023-05-18T06:42:31.382Z,39.86
2023-05-18T06:43:31.189Z,39.87
2023-05-18T06:44:31.026Z,39.88
2023-05-18T06:45:31.332Z,39.89
2023-05-18T06:46:30.798Z,39.87
2023-05-18T06:47:30.639Z,39.88
2023-05-18T06:48:30.482Z,39.88
2023-05-18T06:49:30.344Z,39.86
2023-05-18T06:50:30.213Z,39.88
2023-05-18T06:51:30.086Z,39.88
2023-05-18T06:52:29.954Z,39.86
2023-05-18T06:53:29.816Z,39.83
2023-05-18T06:54:29.690Z,39.85
2023-05-18T06:55:29.766Z,39.86
2023-05-18T06:56:29.434Z,39.84
2023-05-18T06:57:29.303Z,39.83
2023-05-18T06:58:29.189Z,39.83
2023-05-18T06:59:29.047Z,39.83
2023-05-18T07:00:28.986Z,39.81
2023-05-18T07:01:28.809Z,39.81
2023-05-18T07:02:28.678Z,39.82
2023-05-18T07:03:28.538Z,39.81
2023-05-18T07:04:28.410Z,39.81
2023-05-18T07:05:28.421Z,39.79
2023-05-18T07:06:28.136Z,39.78
2023-05-18T07:07:28.061Z,39.77
2023-05-18T07:08:27.901Z,39.78
2023-05-18T07:09:27.726Z,39.79
2023-05-18T07:10:27.611Z,39.79
2023-05-18T07:11:29.471Z,39.79
2023-05-18T07:12:27.323Z,39.77
2023-05-18T07:13:27.214Z,39.78
2023-05-18T07:14:27.067Z,39.74
2023-05-18T07:15:26.926Z,39.77
2023-05-18T07:16:26.898Z,39.77
2023-05-18T07:17:26.730Z,39.73
2023-05-18T07:18:26.557Z,39.74
2023-05-18T07:19:26.427Z,39.74
2023-05-18T07:20:26.705Z,39.72
2023-05-18T07:21:26.114Z,39.73
2023-05-18T07:22:25.974Z,39.73
2023-05-18T07:23:25.841Z,39.68
2023-05-18T07:24:25.701Z,39.72
2023-05-18T07:25:25.568Z,39.71
2023-05-18T07:26:25.432Z,39.69
2023-05-18T07:27:25.296Z,39.69
2023-05-18T07:28:25.161Z,39.72
2023-05-18T07:29:25.029Z,39.70
2023-05-18T07:30:24.892Z,39.69
2023-05-18T07:31:24.791Z,39.72
2023-05-18T07:32:24.622Z,39.72
2023-05-18T07:33:24.490Z,39.71
2023-05-18T07:34:24.361Z,39.71
2023-05-18T07:35:24.224Z,39.70
2023-05-18T07:36:24.073Z,39.70
2023-05-18T07:37:23.962Z,39.68
2023-05-18T07:38:23.803Z,39.70
2023-05-18T07:39:23.708Z,39.68
2023-05-18T07:40:23.549Z,39.68
2023-05-18T07:41:23.385Z,39.66
2023-05-18T07:42:23.252Z,39.68
2023-05-18T07:43:23.123Z,39.66
2023-05-18T07:44:22.987Z,39.67
2023-05-18T07:45:22.842Z,39.65
2023-05-18T07:46:22.770Z,39.62
2023-05-18T07:47:22.565Z,39.64
2023-05-18T07:48:22.417Z,39.67
2023-05-18T07:49:22.275Z,39.65
2023-05-18T07:50:22.137Z,39.66
2023-05-18T07:51:21.986Z,39.66
2023-05-18T07:52:21.847Z,39.66
2023-05-18T07:53:21.729Z,39.65
2023-05-18T07:54:21.585Z,39.66
2023-05-18T07:55:21.438Z,39.64
2023-05-18T07:56:21.288Z,39.66
2023-05-18T07:57:21.156Z,39.66
2023-05-18T07:58:21.002Z,39.66
2023-05-18T07:59:20.869Z,39.64
2023-05-18T08:00:20.742Z,39.64
2023-05-18T08:01:20.574Z,39.62
2023-05-18T08:02:20.535Z,39.66
2023-05-18T08:03:20.327Z,39.66
2023-05-18T08:04:20.189Z,39.65
2023-05-18T08:05:20.021Z,39.63
2023-05-18T08:06:19.871Z,39.60
2023-05-18T08:07:19.725Z,39.64
2023-05-18T08:08:19.586Z,39.64
2023-05-18T08:09:20.186Z,39.64
2023-05-18T08:10:19.300Z,39.64
2023-05-18T08:11:19.155Z,39.65
2023-05-18T08:12:19.080Z,39.64
2023-05-18T08:13:18.865Z,39.65
2023-05-18T08:14:18.737Z,39.60
2023-05-18T08:15:18.594Z,39.62
2023-05-18T08:16:18.498Z,39.62
2023-05-18T08:17:18.311Z,39.61
2023-05-18T08:18:18.171Z,39.62
2023-05-18T08:19:18.080Z,39.61
2023-05-18T08:20:17.906Z,39.62
2023-05-18T08:21:17.757Z,39.62
2023-05-18T08:22:17.627Z,39.61
2023-05-18T08:23:17.484Z,39.60
2023-05-18T08:24:17.337Z,39.59
2023-05-18T08:25:17.200Z,39.61
2023-05-18T08:26:17.050Z,39.57
2023-05-18T08:27:16.903Z,39.59
2023-05-18T08:28:16.756Z,39.59
2023-05-18T08:29:16.613Z,39.58
2023-05-18T08:30:16.480Z,39.57
2023-05-18T08:31:16.357Z,39.59
2023-05-18T08:32:16.233Z,39.57
2023-05-18T08:33:16.088Z,39.58
2023-05-18T08:34:15.883Z,39.59
2023-05-18T08:35:15.750Z,39.56
2023-05-18T08:36:15.593Z,39.55
2023-05-18T08:37:15.463Z,39.57
2023-05-18T08:38:15.318Z,39.54
2023-05-18T08:39:15.152Z,39.55
2023-05-18T08:40:15.023Z,39.56
2023-05-18T08:41:14.868Z,39.55
2023-05-18T08:42:14.722Z,39.54
2023-05-18T08:43:14.573Z,39.53
2023-05-18T08:44:14.437Z,39.53
2023-05-18T08:45:14.290Z,39.54
2023-05-18T08:46:14.141Z,39.55
2023-05-18T08:47:13.987Z,39.53
2023-05-18T08:48:13.887Z,39.54
2023-05-18T08:49:13.708Z,39.54
2023-05-18T08:50:13.564Z,39.51
2023-05-18T08:51:13.411Z,39.52
2023-05-18T08:52:13.264Z,39.52
2023-05-18T08:53:13.123Z,39.55
2023-05-18T08:54:12.970Z,39.52
2023-05-18T08:55:12.832Z,39.51
2023-05-18T08:56:12.700Z,39.52
2023-05-18T08:57:12.541Z,39.51
2023-05-18T08:58:12.401Z,39.53
2023-05-18T08:59:12.259Z,39.51
2023-05-18T09:00:12.125Z,39.52
2023-05-18T09:01:11.997Z,39.52
2023-05-18T09:02:11.885Z,39.49
2023-05-18T09:03:11.775Z,39.51
2023-05-18T09:04:11.535Z,39.47
2023-05-18T09:05:11.451Z,39.48
2023-05-18T09:06:11.245Z,39.47
2023-05-18T09:07:11.124Z,39.49
2023-05-18T09:08:10.954Z,39.45
2023-05-18T09:09:10.821Z,39.45
2023-05-18T09:10:10.684Z,39.46
2023-05-18T09:11:10.540Z,39.46
2023-05-18T09:12:10.395Z,39.47
2023-05-18T09:13:10.303Z,39.45
2023-05-18T09:14:10.093Z,39.44
2023-05-18T09:15:09.965Z,39.45
2023-05-18T09:16:09.903Z,39.44
2023-05-18T09:17:09.687Z,39.44
2023-05-18T09:18:09.602Z,39.43
2023-05-18T09:19:09.441Z,39.44
2023-05-18T09:20:09.270Z,39.43
2023-05-18T09:21:09.137Z,39.43
2023-05-18T09:22:09.794Z,39.44
2023-05-18T09:23:08.833Z,39.42
2023-05-18T09:24:08.723Z,39.40
2023-05-18T09:25:08.592Z,39.38
2023-05-18T09:26:08.513Z,39.40
2023-05-18T09:27:08.460Z,39.37
2023-05-18T09:28:08.358Z,39.40
2023-05-18T09:29:08.229Z,39.37
2023-05-18T09:30:08.115Z,39.40
2023-05-18T09:31:08.019Z,39.38
2023-05-18T09:32:07.860Z,39.39
2023-05-18T09:33:07.759Z,39.37
2023-05-18T09:34:07.573Z,39.35
2023-05-18T09:35:07.392Z,39.35
2023-05-18T09:36:07.269Z,39.35
2023-05-18T09:37:07.166Z,39.36
2023-05-18T09:38:07.008Z,39.37
2023-05-18T09:39:06.890Z,39.35
2023-05-18T09:40:06.796Z,39.35
2023-05-18T09:41:06.562Z,39.32
2023-05-18T09:42:06.426Z,39.34
2023-05-18T09:43:06.273Z,39.35
2023-05-18T09:44:06.118Z,39.36
2023-05-18T09:45:05.970Z,39.34
2023-05-18T09:46:05.838Z,39.33
2023-05-18T09:47:05.759Z,39.31
2023-05-18T09:48:05.612Z,39.34
2023-05-18T09:49:05.399Z,39.35
2023-05-18T09:50:05.278Z,39.33
2023-05-18T09:51:05.091Z,39.33
2023-05-18T09:52:04.945Z,39.33
2023-05-18T09:53:04.805Z,39.35
2023-05-18T09:54:04.666Z,39.33
2023-05-18T09:55:04.505Z,39.34
2023-05-18T09:56:04.351Z,39.30
2023-05-18T09:57:10.772Z,39.33
2023-05-18T09:58:05.051Z,39.33
2023-05-18T09:59:03.906Z,39.35
2023-05-18T10:00:03.753Z,39.33
2023-05-18T10:01:03.650Z,39.34
2023-05-18T10:02:03.427Z,39.34
2023-05-18T10:03:03.309Z,39.33
2023-05-18T10:04:03.164Z,39.35
2023-05-18T10:05:02.967Z,39.34
2023-05-18T10:06:02.806Z,39.32
2023-05-18T10:07:02.647Z,39.31
2023-05-18T10:08:02.490Z,39.32
2023-05-18T10:09:02.330Z,39.31
2023-05-18T10:10:02.223Z,39.30
2023-05-18T10:11:02.042Z,39.29
2023-05-18T10:12:01.862Z,39.29
2023-05-18T10:13:01.699Z,39.29
2023-05-18T10:14:01.552Z,39.29
2023-05-18T10:15:01.390Z,39.28
2023-05-18T10:16:01.241Z,39.28
2023-05-18T10:17:14.303Z,39.29
2023-05-18T10:18:01.950Z,39.28
2023-05-18T10:19:00.791Z,39.27
2023-05-18T10:20:00.609Z,39.29
2023-05-18T10:21:00.637Z,39.28
2023-05-18T10:22:00.288Z,39.27
2023-05-18T10:23:00.172Z,39.26
2023-05-18T10:23:59.958Z,39.25
2023-05-18T10:24:59.802Z,39.25
2023-05-18T10:25:59.651Z,39.27
2023-05-18T10:26:59.485Z,39.24
2023-05-18T10:27:59.330Z,39.26
2023-05-18T10:28:59.172Z,39.27
2023-05-18T10:29:59.019Z,39.25
2023-05-18T10:30:58.922Z,39.25
2023-05-18T10:32:01.510Z,39.25
2023-05-18T10:32:58.659Z,39.25
2023-05-18T10:33:58.357Z,39.27
2023-05-18T10:34:58.214Z,39.27
2023-05-18T10:35:58.103Z,39.24
2023-05-18T10:36:57.891Z,39.25
2023-05-18T10:37:57.729Z,39.25
2023-05-18T10:38:57.559Z,39.21
2023-05-18T10:39:57.394Z,39.26
2023-05-18T10:40:57.241Z,39.24
2023-05-18T10:41:57.070Z,39.24
2023-05-18T10:42:56.924Z,39.24
2023-05-18T10:43:56.774Z,39.23
2023-05-18T10:44:56.633Z,39.21
2023-05-18T10:45:56.529Z,39.24
2023-05-18T10:46:56.433Z,39.25
2023-05-18T10:47:56.829Z,39.24
2023-05-18T10:48:55.982Z,39.22
2023-05-18T10:49:55.831Z,39.21
2023-05-18T10:50:55.689Z,39.20
2023-05-18T10:51:55.507Z,39.19
2023-05-18T10:52:55.364Z,39.16
2023-05-18T10:53:56.216Z,39.21
2023-05-18T10:54:55.051Z,39.20
2023-05-18T10:55:54.901Z,39.18
2023-05-18T10:56:54.724Z,39.19
2023-05-18T10:57:54.575Z,39.17
2023-05-18T10:58:54.400Z,39.19
2023-05-18T10:59:54.255Z,39.17
2023-05-18T11:00:54.103Z,39.16
2023-05-18T11:01:53.969Z,39.14
2023-05-18T11:02:53.817Z,39.15
2023-05-18T11:03:53.620Z,39.17
2023-05-18T11:04:54.242Z,39.13
2023-05-18T11:05:53.343Z,39.15
2023-05-18T11:06:53.254Z,39.14
2023-05-18T11:07:53.143Z,39.13
2023-05-18T11:08:53.034Z,39.14
2023-05-18T11:09:52.924Z,39.14
2023-05-18T11:10:52.822Z,39.08
2023-05-18T11:11:52.704Z,39.11
2023-05-18T11:12:52.590Z,39.13
2023-05-18T11:13:52.486Z,39.11
2023-05-18T11:14:52.323Z,39.11
2023-05-18T11:15:52.219Z,39.12
2023-05-18T11:16:52.100Z,39.07
2023-05-18T11:17:51.957Z,39.07
2023-05-18T11:18:52.024Z,39.08
2023-05-18T11:19:51.734Z,39.07
2023-05-18T11:20:51.642Z,39.10
2023-05-18T11:21:51.542Z,39.05
2023-05-18T11:22:51.504Z,39.09
2023-05-18T11:23:51.312Z,39.07
2023-05-18T11:24:51.196Z,39.06
2023-05-18T11:25:51.120Z,39.08
2023-05-18T11:26:50.992Z,39.06
2023-05-18T11:27:50.845Z,39.08
2023-05-18T11:28:50.739Z,39.09
2023-05-18T11:29:57.862Z,39.09
2023-05-18T11:30:51.427Z,39.06
2023-05-18T11:31:50.301Z,39.04
2023-05-18T11:32:50.160Z,39.06
2023-05-18T11:33:49.941Z,39.08
2023-05-18T11:34:49.803Z,39.07
2023-05-18T11:35:49.621Z,39.08
2023-05-18T11:36:49.461Z,39.04
2023-05-18T11:37:49.299Z,39.05
2023-05-18T11:38:49.140Z,39.06
2023-05-18T11:39:58.383Z,39.05
2023-05-18T11:40:49.807Z,39.04
2023-05-18T11:41:48.656Z,39.06
2023-05-18T11:42:48.485Z,39.07
2023-05-18T11:43:48.318Z,39.06
2023-05-18T11:44:48.162Z,39.05
2023-05-18T11:45:48.016Z,39.03
2023-05-18T11:46:47.835Z,39.04
2023-05-18T11:47:47.718Z,39.06
2023-05-18T11:48:47.704Z,39.04
2023-05-18T11:49:47.389Z,39.03
2023-05-18T11:50:47.226Z,39.04
2023-05-18T11:51:47.142Z,39.04
2023-05-18T11:52:47.039Z,39.02
2023-05-18T11:53:46.917Z,38.99
2023-05-18T11:54:46.790Z,39.02
2023-05-18T11:55:46.668Z,39.02
2023-05-18T11:56:46.557Z,39.01
2023-05-18T11:57:46.449Z,39.01
2023-05-18T11:58:46.350Z,39.00
2023-05-18T11:59:46.227Z,38.99
2023-05-18T12:00:46.136Z,39.00
2023-05-18T12:01:46.065Z,38.99
2023-05-18T12:02:46.169Z,39.01
2023-05-18T12:03:48.490Z,39.00
2023-05-18T12:04:45.747Z,39.01
2023-05-18T12:05:45.535Z,39.00
2023-05-18T12:06:45.361Z,39.00
2023-05-18T12:07:45.357Z,39.00
2023-05-18T12:08:45.035Z,39.02
2023-05-18T12:09:44.874Z,39.00
2023-05-18T12:10:44.721Z,39.01
2023-05-18T12:11:44.661Z,38.99
2023-05-18T12:12:44.407Z,38.99
2023-05-18T12:13:44.230Z,38.97
2023-05-18T12:14:44.068Z,39.00
2023-05-18T12:15:43.905Z,38.95
2023-05-18T12:16:43.767Z,38.98
2023-05-18T12:17:43.649Z,38.98
2023-05-18T12:18:43.514Z,38.99
2023-05-18T12:19:43.264Z,38.99
2023-05-18T12:20:43.099Z,38.98
2023-05-18T12:21:42.944Z,38.99
2023-05-18T12:22:42.779Z,39.00
2023-05-18T12:23:42.620Z,38.97
2023-05-18T12:24:42.487Z,38.97
2023-05-18T12:25:42.367Z,38.99
2023-05-18T12:26:42.149Z,38.99
2023-05-18T12:27:42.027Z,39.00
2023-05-18T12:28:41.830Z,38.97
2023-05-18T12:29:41.669Z,38.97
2023-05-18T12:30:41.541Z,38.97
2023-05-18T12:31:41.404Z,38.98
2023-05-18T12:32:41.223Z,38.98
2023-05-18T12:33:41.046Z,38.97
2023-05-18T12:34:40.870Z,38.97
2023-05-18T12:35:40.709Z,38.96
2023-05-18T12:36:40.550Z,38.97
2023-05-18T12:37:45.216Z,38.97
2023-05-18T12:38:41.237Z,38.96
2023-05-18T12:39:40.066Z,38.93
2023-05-18T12:40:39.920Z,38.93
2023-05-18T12:41:39.747Z,38.92
2023-05-18T12:42:39.591Z,38.92
2023-05-18T12:43:39.437Z,38.92
2023-05-18T12:44:39.250Z,38.92
2023-05-18T12:45:39.097Z,38.92
2023-05-18T12:46:38.960Z,38.93
2023-05-18T12:47:38.844Z,38.91
2023-05-18T12:48:38.690Z,38.92
2023-05-18T12:49:38.598Z,38.94
2023-05-18T12:50:38.500Z,38.93